Time;durP1;ratioP1;P1;durP2;ratioP2;P2;SDS_P1;SDS_P2;PMS_P1;PMS_P2;Temp;Humidity;BMP_temperature;BMP_pressure;BME280_temperature;BME280_humidity;BME280_pressure;Samples;Min_cycle;Max_cycle;Signal;HPM_P1;HPM_P2
2022/03/14 00:01:30;;;;;;;22.77;14.48;;;;;;;;;;5055957;28;20043;-78
2022/03/14 00:03:58;;;;;;;28.45;17.08;;;;;;;;;;5055946;28;20380;-77
2022/03/14 00:06:25;;;;;;;37.67;23.10;;;;;;;;;;5055743;28;20139;-77
2022/03/14 00:08:55;;;;;;;33.13;20.55;;;;;;;;;;5055834;28;20029;-77
2022/03/14 00:11:23;;;;;;;28.30;17.67;;;;;;;;;;5055853;28;20028;-77
2022/03/14 00:13:50;;;;;;;26.05;16.52;;;;;;;;;;5055827;28;20079;-77
2022/03/14 00:16:26;;;;;;;27.13;15.25;;;;;;;;;;5055509;28;20029;-77
2022/03/14 00:18:53;;;;;;;24.48;15.57;;;;;;;;;;5055670;28;20498;-77
2022/03/14 00:21:25;;;;;;;23.90;15.43;;;;;;;;;;5055527;28;20498;-77
2022/03/14 00:23:52;;;;;;;20.63;12.57;;;;;;;;;;5055557;28;20032;-77
2022/03/14 00:26:19;;;;;;;20.25;14.13;;;;;;;;;;5055480;28;20384;-77
2022/03/14 00:28:45;;;;;;;22.02;13.38;;;;;;;;;;5055245;28;20029;-77
2022/03/14 00:31:11;;;;;;;20.80;13.35;;;;;;;;;;5055494;28;20100;-77
2022/03/14 00:33:39;;;;;;;21.73;13.73;;;;;;;;;;5055355;28;20104;-77
2022/03/14 00:36:06;;;;;;;23.33;15.13;;;;;;;;;;5055267;28;20035;-77
2022/03/14 00:38:33;;;;;;;23.45;16.05;;;;;;;;;;5055426;28;20025;-77
2022/03/14 00:40:59;;;;;;;22.52;14.88;;;;;;;;;;5055173;28;20083;-77
2022/03/14 00:43:26;;;;;;;19.85;14.82;;;;;;;;;;5055099;28;20116;-77
2022/03/14 00:45:52;;;;;;;21.15;14.60;;;;;;;;;;5055153;28;20037;-78
2022/03/14 00:48:19;;;;;;;24.85;16.05;;;;;;;;;;5055076;28;20049;-77
2022/03/14 00:50:45;;;;;;;26.88;18.92;;;;;;;;;;5055249;28;20104;-77
2022/03/14 00:53:12;;;;;;;36.40;19.10;;;;;;;;;;5055112;28;20510;-77
2022/03/14 00:55:38;;;;;;;38.53;21.17;;;;;;;;;;5054953;28;20032;-77
2022/03/14 00:58:04;;;;;;;37.03;22.00;;;;;;;;;;5054873;28;20392;-77
2022/03/14 01:00:30;;;;;;;47.63;24.10;;;;;;;;;;5054848;28;20490;-77
2022/03/14 01:02:58;;;;;;;52.60;23.15;;;;;;;;;;5054868;28;20135;-77
2022/03/14 01:05:24;;;;;;;30.25;15.20;;;;;;;;;;5054991;28;20125;-77
2022/03/14 01:07:50;;;;;;;23.42;13.77;;;;;;;;;;5053386;28;20029;-78
2022/03/14 01:10:16;;;;;;;26.45;14.80;;;;;;;;;;5054793;28;20021;-77
2022/03/14 01:12:42;;;;;;;17.27;11.38;;;;;;;;;;5054735;28;20029;-78
2022/03/14 01:15:09;;;;;;;17.40;9.82;;;;;;;;;;5054651;28;20098;-77
2022/03/14 01:17:36;;;;;;;17.13;10.80;;;;;;;;;;5054873;28;20062;-77
2022/03/14 01:20:03;;;;;;;18.75;11.85;;;;;;;;;;5054542;28;20079;-77
2022/03/14 01:22:29;;;;;;;21.27;13.05;;;;;;;;;;5054586;28;20029;-77
2022/03/14 01:24:55;;;;;;;21.98;13.70;;;;;;;;;;5054586;28;20029;-77
2022/03/14 01:27:21;;;;;;;21.80;13.25;;;;;;;;;;5054679;28;20029;-77
2022/03/14 01:29:47;;;;;;;22.23;12.80;;;;;;;;;;5054667;28;20065;-77
2022/03/14 01:32:13;;;;;;;23.92;15.20;;;;;;;;;;5054463;28;20025;-77
2022/03/14 01:34:39;;;;;;;34.50;19.25;;;;;;;;;;5057851;28;20048;-77
2022/03/14 01:37:05;;;;;;;37.75;22.45;;;;;;;;;;5054350;28;20025;-77
2022/03/14 01:39:32;;;;;;;38.67;22.52;;;;;;;;;;5052832;28;20380;-77
2022/03/14 01:41:59;;;;;;;36.22;21.08;;;;;;;;;;5053510;28;20133;-77
2022/03/14 01:44:25;;;;;;;33.35;19.35;;;;;;;;;;5053871;28;20380;-77
2022/03/14 01:46:52;;;;;;;28.80;17.50;;;;;;;;;;5052685;28;20107;-77
2022/03/14 01:49:18;;;;;;;25.85;17.08;;;;;;;;;;5054071;28;20387;-77
2022/03/14 01:51:45;;;;;;;28.30;16.27;;;;;;;;;;5053925;28;20052;-77
2022/03/14 01:54:11;;;;;;;28.58;15.95;;;;;;;;;;5053823;28;20191;-77
2022/03/14 01:56:39;;;;;;;30.63;17.98;;;;;;;;;;5053731;28;20418;-77
2022/03/14 01:59:06;;;;;;;27.05;16.13;;;;;;;;;;5053890;28;20036;-77
2022/03/14 02:01:32;;;;;;;28.05;16.48;;;;;;;;;;5053710;28;20032;-77
2022/03/14 02:03:59;;;;;;;27.10;15.57;;;;;;;;;;5053774;28;20036;-77
2022/03/14 02:06:27;;;;;;;24.30;14.98;;;;;;;;;;5053662;28;20043;-77
2022/03/14 02:08:54;;;;;;;26.63;16.90;;;;;;;;;;5052175;28;20437;-77
2022/03/14 02:11:21;;;;;;;24.10;14.68;;;;;;;;;;5052194;28;20037;-77
2022/03/14 02:13:47;;;;;;;18.00;12.07;;;;;;;;;;5053530;28;20025;-77
2022/03/14 02:16:14;;;;;;;21.00;12.68;;;;;;;;;;5053680;28;20032;-78
2022/03/14 02:18:40;;;;;;;19.25;13.07;;;;;;;;;;5053345;28;20025;-77
2022/03/14 02:21:08;;;;;;;21.90;14.05;;;;;;;;;;5053396;28;20032;-77
2022/03/14 02:23:35;;;;;;;25.02;16.02;;;;;;;;;;5053293;28;20128;-77
2022/03/14 02:26:01;;;;;;;25.98;14.77;;;;;;;;;;5053465;28;20037;-77
2022/03/14 02:28:27;;;;;;;24.33;15.13;;;;;;;;;;5053586;28;20029;-77
2022/03/14 02:30:54;;;;;;;33.67;19.08;;;;;;;;;;5053431;28;20033;-77
2022/03/14 02:33:20;;;;;;;55.95;26.35;;;;;;;;;;5053267;28;20029;-77
2022/03/14 02:35:47;;;;;;;38.17;18.30;;;;;;;;;;5053291;28;20025;-77
2022/03/14 02:38:19;;;;;;;23.08;14.00;;;;;;;;;;5053534;28;20106;-77
2022/03/14 02:40:46;;;;;;;24.15;12.85;;;;;;;;;;5053229;28;20025;-77
2022/03/14 02:43:15;;;;;;;21.20;13.38;;;;;;;;;;5053200;28;20484;-77
2022/03/14 02:45:41;;;;;;;16.85;10.40;;;;;;;;;;5053231;28;20039;-77
2022/03/14 02:48:07;;;;;;;18.67;11.50;;;;;;;;;;5053414;28;20052;-77
2022/03/14 02:50:35;;;;;;;21.55;12.38;;;;;;;;;;5053001;28;20451;-77
2022/03/14 02:53:01;;;;;;;20.83;12.13;;;;;;;;;;5053905;28;20076;-77
2022/03/14 02:55:28;;;;;;;22.25;14.13;;;;;;;;;;5057212;28;20086;-77
2022/03/14 02:57:54;;;;;;;27.13;14.25;;;;;;;;;;5057218;28;20032;-77
2022/03/14 03:00:21;;;;;;;24.73;14.82;;;;;;;;;;5056960;28;20033;-77
2022/03/14 03:02:47;;;;;;;21.55;12.75;;;;;;;;;;5057216;28;20032;-77
2022/03/14 03:05:13;;;;;;;19.10;12.32;;;;;;;;;;5056976;28;20036;-77
2022/03/14 03:07:39;;;;;;;20.17;12.13;;;;;;;;;;5057232;28;20048;-77
2022/03/14 03:10:06;;;;;;;18.38;11.20;;;;;;;;;;5056802;28;20025;-77
2022/03/14 03:12:37;;;;;;;21.70;11.18;;;;;;;;;;5057009;28;20376;-77
2022/03/14 03:15:04;;;;;;;17.88;11.63;;;;;;;;;;5056803;28;20040;-77
2022/03/14 03:17:30;;;;;;;15.60;10.07;;;;;;;;;;5056962;28;20503;-77
2022/03/14 03:19:56;;;;;;;17.92;10.70;;;;;;;;;;5056929;28;20032;-77
2022/03/14 03:22:22;;;;;;;22.77;12.80;;;;;;;;;;5056854;28;20484;-77
2022/03/14 03:24:48;;;;;;;19.45;11.80;;;;;;;;;;5058934;28;20029;-77
2022/03/14 03:27:14;;;;;;;18.55;10.40;;;;;;;;;;5057538;28;20033;-77
2022/03/14 03:29:41;;;;;;;30.80;16.55;;;;;;;;;;5056695;28;20079;-77
2022/03/14 03:32:07;;;;;;;29.67;17.95;;;;;;;;;;5056400;28;20029;-76
2022/03/14 03:34:34;;;;;;;29.92;17.02;;;;;;;;;;5056843;28;20044;-77
2022/03/14 03:37:00;;;;;;;27.92;16.33;;;;;;;;;;5056429;28;20033;-77
2022/03/14 03:39:26;;;;;;;25.80;15.18;;;;;;;;;;5056697;28;20112;-77
2022/03/14 03:41:52;;;;;;;22.65;13.73;;;;;;;;;;5056401;28;20037;-77
2022/03/14 03:44:18;;;;;;;22.90;14.35;;;;;;;;;;5056470;28;20021;-77
2022/03/14 03:46:44;;;;;;;31.27;17.90;;;;;;;;;;5056519;28;20044;-77
2022/03/14 03:49:10;;;;;;;24.80;16.00;;;;;;;;;;5056344;28;20029;-77
2022/03/14 03:51:36;;;;;;;20.88;13.25;;;;;;;;;;5056088;28;20408;-77
2022/03/14 03:54:03;;;;;;;21.23;13.57;;;;;;;;;;5056329;28;20025;-77
2022/03/14 03:56:30;;;;;;;21.60;12.57;;;;;;;;;;5056225;28;20029;-77
2022/03/14 03:58:56;;;;;;;17.30;11.25;;;;;;;;;;5056046;28;20053;-77
2022/03/14 04:01:23;;;;;;;22.55;13.07;;;;;;;;;;5056070;28;20025;-77
2022/03/14 04:03:54;;;;;;;17.83;12.85;;;;;;;;;;5055468;28;20431;-77
2022/03/14 04:06:22;;;;;;;18.60;11.85;;;;;;;;;;5055778;28;20037;-76
2022/03/14 04:08:48;;;;;;;16.65;11.77;;;;;;;;;;5055999;28;20111;-77
2022/03/14 04:11:15;;;;;;;21.25;12.07;;;;;;;;;;5055978;28;20487;-77
2022/03/14 04:13:41;;;;;;;23.45;13.38;;;;;;;;;;5055497;28;20054;-77
2022/03/14 04:16:07;;;;;;;23.33;12.57;;;;;;;;;;5055725;28;20099;-77
2022/03/14 04:18:34;;;;;;;22.48;12.88;;;;;;;;;;5055816;28;20021;-77
2022/03/14 04:21:00;;;;;;;23.88;14.32;;;;;;;;;;5055673;28;20113;-77
2022/03/14 04:23:26;;;;;;;25.92;13.02;;;;;;;;;;5055741;28;20120;-77
2022/03/14 04:25:53;;;;;;;24.63;13.85;;;;;;;;;;5054228;28;20025;-77
2022/03/14 04:28:20;;;;;;;25.13;14.50;;;;;;;;;;5055428;28;20060;-78
2022/03/14 04:30:46;;;;;;;22.58;13.45;;;;;;;;;;5053875;28;20472;-77
2022/03/14 04:33:12;;;;;;;27.80;15.35;;;;;;;;;;5055604;28;20025;-77
2022/03/14 04:35:39;;;;;;;26.55;14.90;;;;;;;;;;5054230;28;20021;-77
2022/03/14 04:38:07;;;;;;;23.50;14.88;;;;;;;;;;5055933;28;20367;-77
2022/03/14 04:40:33;;;;;;;25.92;15.38;;;;;;;;;;5055369;28;20113;-77
2022/03/14 04:43:09;;;;;;;26.63;14.63;;;;;;;;;;5055181;28;20141;-76
2022/03/14 04:45:36;;;;;;;21.15;13.38;;;;;;;;;;5054903;28;20055;-77
2022/03/14 04:48:03;;;;;;;25.70;12.55;;;;;;;;;;5055219;28;20503;-77
2022/03/14 04:50:29;;;;;;;31.02;15.80;;;;;;;;;;5055200;28;20047;-77
2022/03/14 04:52:56;;;;;;;22.45;14.23;;;;;;;;;;5054803;28;20045;-77
2022/03/14 04:55:22;;;;;;;21.38;11.50;;;;;;;;;;5054568;28;20029;-77
2022/03/14 04:57:48;;;;;;;27.90;15.07;;;;;;;;;;5054951;28;20029;-77
2022/03/14 05:00:15;;;;;;;42.47;21.77;;;;;;;;;;5054454;28;20449;-77
2022/03/14 05:02:41;;;;;;;31.27;16.77;;;;;;;;;;5056435;28;20033;-76
2022/03/14 05:05:11;;;;;;;33.65;17.95;;;;;;;;;;5053481;28;20032;-77
2022/03/14 05:07:37;;;;;;;45.47;24.15;;;;;;;;;;5055496;28;20053;-78
2022/03/14 05:10:04;;;;;;;46.97;23.58;;;;;;;;;;5055089;28;20386;-79
2022/03/14 05:12:34;;;;;;;50.13;23.55;;;;;;;;;;5054767;28;20025;-78
2022/03/14 05:15:00;;;;;;;49.28;23.80;;;;;;;;;;5054403;28;20035;-78
2022/03/14 05:17:29;;;;;;;44.25;26.33;;;;;;;;;;5054343;28;20021;-78
2022/03/14 05:19:56;;;;;;;55.90;30.00;;;;;;;;;;5054788;28;20380;-78
2022/03/14 05:22:22;;;;;;;61.78;31.73;;;;;;;;;;5054549;28;20029;-76
2022/03/14 05:24:48;;;;;;;67.47;35.25;;;;;;;;;;5054410;28;20028;-77
2022/03/14 05:27:14;;;;;;;65.80;34.97;;;;;;;;;;5054257;28;20032;-77
2022/03/14 05:29:40;;;;;;;52.65;31.42;;;;;;;;;;5054326;28;20021;-77
2022/03/14 05:32:08;;;;;;;51.92;30.17;;;;;;;;;;5054462;28;20025;-77
2022/03/14 05:34:35;;;;;;;74.07;42.55;;;;;;;;;;5054195;28;20051;-79
2022/03/14 05:37:01;;;;;;;58.50;34.55;;;;;;;;;;5052825;28;20060;-78
2022/03/14 05:39:28;;;;;;;47.88;31.00;;;;;;;;;;5054213;28;20025;-78
2022/03/14 05:41:55;;;;;;;40.92;25.45;;;;;;;;;;5054069;28;20063;-78
2022/03/14 05:44:21;;;;;;;33.33;21.88;;;;;;;;;;5054283;28;20029;-78
2022/03/14 05:46:48;;;;;;;30.00;18.80;;;;;;;;;;5054547;28;20479;-78
2022/03/14 05:49:14;;;;;;;31.77;18.13;;;;;;;;;;5054012;28;20100;-78
2022/03/14 05:51:40;;;;;;;25.95;16.90;;;;;;;;;;5053688;28;20488;-77
2022/03/14 05:54:06;;;;;;;29.92;19.65;;;;;;;;;;5054058;28;20170;-77
2022/03/14 05:56:32;;;;;;;23.70;16.15;;;;;;;;;;5053963;28;20082;-77
2022/03/14 05:58:58;;;;;;;35.17;20.35;;;;;;;;;;5053868;28;20090;-78
2022/03/14 06:01:24;;;;;;;32.28;19.40;;;;;;;;;;5053938;28;20028;-78
2022/03/14 06:03:53;;;;;;;35.03;20.40;;;;;;;;;;5053378;28;20059;-78
2022/03/14 06:06:19;;;;;;;33.13;20.55;;;;;;;;;;5053595;28;20029;-78
2022/03/14 06:08:45;;;;;;;38.60;22.55;;;;;;;;;;5055131;28;20361;-78
2022/03/14 06:11:12;;;;;;;65.30;31.73;;;;;;;;;;5053769;28;20025;-78
2022/03/14 06:13:39;;;;;;;79.22;40.85;;;;;;;;;;5053342;28;20465;-78
2022/03/14 06:16:05;;;;;;;85.45;38.38;;;;;;;;;;5053517;28;20107;-78
2022/03/14 06:18:31;;;;;;;78.10;39.22;;;;;;;;;;5053088;28;20025;-78
2022/03/14 06:20:58;;;;;;;70.40;36.70;;;;;;;;;;5043727;28;20026;-78
2022/03/14 06:23:24;;;;;;;64.53;31.60;;;;;;;;;;5034080;28;20024;-78
2022/03/14 06:25:50;;;;;;;41.05;24.40;;;;;;;;;;5036250;28;20040;-78
2022/03/14 06:28:17;;;;;;;35.55;21.23;;;;;;;;;;5048738;28;20032;-79
2022/03/14 06:30:43;;;;;;;38.58;22.38;;;;;;;;;;5051690;28;20448;-78
2022/03/14 06:33:09;;;;;;;37.08;22.38;;;;;;;;;;5051965;28;20033;-78
2022/03/14 06:35:35;;;;;;;30.77;19.95;;;;;;;;;;5049521;28;20396;-81
2022/03/14 06:38:03;;;;;;;32.25;21.30;;;;;;;;;;5052093;28;20479;-78
2022/03/14 06:40:29;;;;;;;28.48;18.80;;;;;;;;;;5051793;28;20080;-78
2022/03/14 06:42:55;;;;;;;26.98;17.48;;;;;;;;;;5051725;28;20501;-77
2022/03/14 06:45:24;;;;;;;29.02;19.00;;;;;;;;;;5050209;28;20021;-78
2022/03/14 06:47:54;;;;;;;33.40;19.45;;;;;;;;;;5051870;28;20043;-78
2022/03/14 06:50:21;;;;;;;42.72;24.08;;;;;;;;;;5051678;28;20025;-79
2022/03/14 06:52:48;;;;;;;43.17;23.80;;;;;;;;;;5051808;28;20048;-78
2022/03/14 06:55:15;;;;;;;35.05;21.10;;;;;;;;;;5050039;28;20029;-79
2022/03/14 06:57:41;;;;;;;41.38;23.92;;;;;;;;;;5046167;28;20451;-78
2022/03/14 07:00:08;;;;;;;44.60;25.75;;;;;;;;;;5050178;28;20024;-80
2022/03/14 07:02:35;;;;;;;39.67;24.20;;;;;;;;;;5049562;28;20167;-79
2022/03/14 07:05:01;;;;;;;39.88;25.38;;;;;;;;;;5049867;28;20017;-79
2022/03/14 07:07:30;;;;;;;39.55;23.77;;;;;;;;;;5050767;28;20044;-80
2022/03/14 07:09:57;;;;;;;43.88;25.60;;;;;;;;;;5050104;28;20105;-79
2022/03/14 07:12:23;;;;;;;53.05;30.30;;;;;;;;;;5049940;28;20025;-79
2022/03/14 07:14:49;;;;;;;44.88;29.10;;;;;;;;;;5050506;28;20557;-78
2022/03/14 07:17:15;;;;;;;33.60;23.48;;;;;;;;;;5050830;28;20029;-80
2022/03/14 07:19:45;;;;;;;27.63;18.15;;;;;;;;;;5050484;28;20043;-80
2022/03/14 07:22:17;;;;;;;35.15;19.42;;;;;;;;;;5050494;28;20071;-79
2022/03/14 07:24:44;;;;;;;17.27;12.10;;;;;;;;;;5049736;28;20033;-79
2022/03/14 07:27:10;;;;;;;21.58;12.02;;;;;;;;;;5049723;28;20037;-81
2022/03/14 07:29:36;;;;;;;18.40;11.38;;;;;;;;;;5049481;28;20115;-79
2022/03/14 07:32:03;;;;;;;21.60;14.02;;;;;;;;;;5050376;28;20108;-80
2022/03/14 07:34:31;;;;;;;18.10;11.77;;;;;;;;;;5046652;28;20033;-79
2022/03/14 07:36:57;;;;;;;21.88;13.45;;;;;;;;;;5048216;28;20033;-78
2022/03/14 07:39:23;;;;;;;18.20;11.25;;;;;;;;;;5051194;28;20017;-79
2022/03/14 07:41:49;;;;;;;15.93;11.48;;;;;;;;;;5053112;28;20036;-79
2022/03/14 07:44:15;;;;;;;20.02;11.60;;;;;;;;;;5040786;28;20059;-77
2022/03/14 07:46:44;;;;;;;18.17;11.45;;;;;;;;;;5034676;28;20111;-79
2022/03/14 07:49:11;;;;;;;20.35;12.02;;;;;;;;;;5033362;28;20025;-80
2022/03/14 07:51:37;;;;;;;16.58;10.65;;;;;;;;;;5033500;28;20127;-79
2022/03/14 07:54:03;;;;;;;13.35;9.18;;;;;;;;;;5033604;28;20160;-79
2022/03/14 07:56:29;;;;;;;15.15;9.63;;;;;;;;;;5033099;28;20374;-78
2022/03/14 07:58:55;;;;;;;21.80;12.40;;;;;;;;;;5037967;28;20464;-80
2022/03/14 08:01:22;;;;;;;22.10;8.35;;;;;;;;;;5053210;28;20095;-79
2022/03/14 08:03:48;;;;;;;16.17;8.20;;;;;;;;;;5051769;28;20035;-79
2022/03/14 08:06:22;;;;;;;10.52;7.35;;;;;;;;;;5052377;28;20044;-80
2022/03/14 08:08:50;;;;;;;10.98;6.88;;;;;;;;;;5052914;28;20055;-81
2022/03/14 08:11:16;;;;;;;13.95;7.20;;;;;;;;;;5053418;28;20025;-79
2022/03/14 08:13:45;;;;;;;18.30;8.43;;;;;;;;;;5053962;28;20053;-79
2022/03/14 08:16:14;;;;;;;15.00;8.23;;;;;;;;;;5054123;28;20094;-79
2022/03/14 08:18:41;;;;;;;10.70;7.30;;;;;;;;;;5050991;28;20059;-79
2022/03/14 08:21:07;;;;;;;13.48;8.40;;;;;;;;;;5052999;28;20029;-81
2022/03/14 08:23:35;;;;;;;10.27;6.50;;;;;;;;;;5053007;28;20051;-80
2022/03/14 08:26:01;;;;;;;14.02;7.78;;;;;;;;;;5052530;28;20396;-82
2022/03/14 08:28:27;;;;;;;13.23;7.20;;;;;;;;;;5050990;28;20025;-81
2022/03/14 08:30:53;;;;;;;19.38;9.65;;;;;;;;;;5051234;28;20033;-79
2022/03/14 08:33:22;;;;;;;9.50;6.38;;;;;;;;;;5052869;28;20426;-80
2022/03/14 08:35:48;;;;;;;10.55;6.05;;;;;;;;;;5052215;28;20116;-80
2022/03/14 08:38:14;;;;;;;12.25;6.90;;;;;;;;;;5052054;28;20033;-81
2022/03/14 08:40:41;;;;;;;12.02;6.68;;;;;;;;;;5052584;28;20060;-80
2022/03/14 08:43:08;;;;;;;11.80;7.00;;;;;;;;;;5051672;28;20107;-79
2022/03/14 08:45:34;;;;;;;9.57;6.55;;;;;;;;;;5051269;28;20040;-79
2022/03/14 08:48:00;;;;;;;14.52;7.03;;;;;;;;;;5051442;28;20079;-78
2022/03/14 08:50:26;;;;;;;9.77;6.28;;;;;;;;;;5053085;28;20103;-81
2022/03/14 08:52:52;;;;;;;10.20;6.13;;;;;;;;;;5052642;28;20462;-78
2022/03/14 08:55:19;;;;;;;12.00;6.88;;;;;;;;;;5052549;28;20036;-77
2022/03/14 08:57:45;;;;;;;11.18;7.53;;;;;;;;;;5051611;28;20025;-78
2022/03/14 09:00:12;;;;;;;11.35;6.55;;;;;;;;;;5053295;28;20364;-79
2022/03/14 09:02:38;;;;;;;9.63;6.15;;;;;;;;;;5035560;28;20065;-79
2022/03/14 09:05:05;;;;;;;11.45;7.55;;;;;;;;;;5048739;28;20033;-79
2022/03/14 09:07:32;;;;;;;12.73;6.28;;;;;;;;;;5050649;28;20033;-81
2022/03/14 09:10:03;;;;;;;10.00;5.60;;;;;;;;;;5051253;28;20108;-79
2022/03/14 09:12:30;;;;;;;8.55;5.70;;;;;;;;;;5049173;28;20040;-78
2022/03/14 09:14:56;;;;;;;8.52;5.25;;;;;;;;;;5051333;28;20087;-80
2022/03/14 09:17:25;;;;;;;7.82;5.20;;;;;;;;;;5051090;28;20484;-78
2022/03/14 09:19:51;;;;;;;8.07;6.45;;;;;;;;;;5052051;28;20029;-80
2022/03/14 09:22:18;;;;;;;10.60;6.20;;;;;;;;;;5051526;28;20080;-79
2022/03/14 09:24:47;;;;;;;11.88;7.50;;;;;;;;;;5052011;28;20025;-80
2022/03/14 09:27:14;;;;;;;8.15;5.72;;;;;;;;;;5051306;28;20699;-81
2022/03/14 09:29:40;;;;;;;9.85;5.82;;;;;;;;;;5042306;28;20100;-78
2022/03/14 09:32:07;;;;;;;11.07;6.68;;;;;;;;;;5031523;28;20807;-82
2022/03/14 09:34:35;;;;;;;9.13;5.05;;;;;;;;;;5033165;28;20029;-80
2022/03/14 09:37:01;;;;;;;13.55;8.73;;;;;;;;;;5049974;28;20066;-79
2022/03/14 09:39:27;;;;;;;8.57;5.63;;;;;;;;;;5051749;28;20435;-80
2022/03/14 09:41:53;;;;;;;8.77;4.50;;;;;;;;;;5051121;28;20099;-81
2022/03/14 09:44:21;;;;;;;10.25;6.25;;;;;;;;;;5050343;28;20068;-79
2022/03/14 09:46:48;;;;;;;7.63;5.32;;;;;;;;;;5049412;28;20114;-83
2022/03/14 09:49:15;;;;;;;7.63;5.00;;;;;;;;;;5049787;28;20087;-80
2022/03/14 09:51:42;;;;;;;9.18;6.47;;;;;;;;;;5051342;28;20086;-79
2022/03/14 09:54:09;;;;;;;9.75;5.80;;;;;;;;;;5051124;28;20020;-84
2022/03/14 09:56:36;;;;;;;11.73;6.53;;;;;;;;;;5051104;28;20099;-81
2022/03/14 09:59:04;;;;;;;16.75;9.63;;;;;;;;;;5048103;28;20536;-83
2022/03/14 10:01:30;;;;;;;12.50;7.32;;;;;;;;;;5048427;28;20033;-78
2022/03/14 10:03:58;;;;;;;16.63;10.15;;;;;;;;;;5050497;28;20075;-84
2022/03/14 10:06:24;;;;;;;7.45;5.28;;;;;;;;;;5050541;28;20037;-77
2022/03/14 10:08:50;;;;;;;7.95;4.35;;;;;;;;;;5051069;28;20033;-84
2022/03/14 10:11:17;;;;;;;6.22;4.07;;;;;;;;;;5041197;28;20040;-76
2022/03/14 10:13:43;;;;;;;7.55;4.68;;;;;;;;;;5048772;28;20025;-78
2022/03/14 10:16:12;;;;;;;5.82;3.80;;;;;;;;;;5050653;28;20036;-81
2022/03/14 10:18:57;;;;;;;7.10;4.15;;;;;;;;;;5051233;28;20495;-78
2022/03/14 10:21:45;;;;;;;6.60;3.67;;;;;;;;;;5049134;28;20395;-80
2022/03/14 10:24:12;;;;;;;5.07;3.15;;;;;;;;;;5049222;28;20494;-79
2022/03/14 10:26:42;;;;;;;4.80;3.10;;;;;;;;;;5050779;28;20051;-78
2022/03/14 10:29:15;;;;;;;5.68;3.35;;;;;;;;;;5050677;28;20029;-81
2022/03/14 10:31:45;;;;;;;3.83;2.65;;;;;;;;;;5050579;28;20025;-81
2022/03/14 10:34:20;;;;;;;7.10;3.15;;;;;;;;;;5050990;28;20040;-84
2022/03/14 10:36:46;;;;;;;8.13;4.93;;;;;;;;;;5051205;28;20037;-81
2022/03/14 10:39:25;;;;;;;7.00;5.25;;;;;;;;;;5036788;28;20029;-79
2022/03/14 10:42:10;;;;;;;7.28;4.45;;;;;;;;;;5042011;28;20095;-81
2022/03/14 10:44:37;;;;;;;6.70;3.13;;;;;;;;;;5049558;28;20028;-78
2022/03/14 10:47:05;;;;;;;4.95;2.97;;;;;;;;;;5040510;28;20065;-80
2022/03/14 10:49:32;;;;;;;7.47;4.45;;;;;;;;;;5041602;28;20183;-79
2022/03/14 10:52:04;;;;;;;10.00;3.88;;;;;;;;;;5046664;28;20120;-80
2022/03/14 10:54:30;;;;;;;4.63;2.85;;;;;;;;;;5033003;28;20033;-79
2022/03/14 10:57:15;;;;;;;10.60;3.83;;;;;;;;;;5048601;28;20178;-78
2022/03/14 10:59:41;;;;;;;;;;;;;;;;;;5045412;28;20025;-79
2022/03/14 11:02:09;;;;;;;6.20;2.85;;;;;;;;;;5050721;28;20390;-80
2022/03/14 11:04:48;;;;;;;5.15;3.05;;;;;;;;;;5050168;28;20021;-81
2022/03/14 11:07:15;;;;;;;9.32;2.83;;;;;;;;;;5049604;28;20067;-77
2022/03/14 11:09:42;;;;;;;10.30;5.80;;;;;;;;;;5048431;28;20036;-79
2022/03/14 11:12:12;;;;;;;5.53;4.05;;;;;;;;;;5040615;28;20044;-80
2022/03/14 11:14:39;;;;;;;9.98;5.82;;;;;;;;;;5038307;28;20048;-80
2022/03/14 11:17:16;;;;;;;5.60;3.70;;;;;;;;;;5044345;28;20032;-80
2022/03/14 11:19:42;;;;;;;5.22;3.40;;;;;;;;;;5046218;28;20033;-78
2022/03/14 11:22:18;;;;;;;6.47;3.67;;;;;;;;;;5041022;28;20120;-79
2022/03/14 11:24:52;;;;;;;7.05;3.20;;;;;;;;;;5045842;28;20036;-79
2022/03/14 11:27:25;;;;;;;10.50;5.88;;;;;;;;;;5036261;28;20385;-78
2022/03/14 11:29:55;;;;;;;7.20;3.92;;;;;;;;;;5034264;28;20025;-77
2022/03/14 11:32:22;;;;;;;6.57;4.22;;;;;;;;;;5034269;28;20065;-77
2022/03/14 11:34:49;;;;;;;4.68;2.30;;;;;;;;;;5037538;28;20029;-79
2022/03/14 11:37:16;;;;;;;6.03;3.85;;;;;;;;;;5054332;28;20098;-78
2022/03/14 11:39:44;;;;;;;4.63;2.80;;;;;;;;;;5054319;28;20429;-76
2022/03/14 11:42:18;;;;;;;4.82;3.70;;;;;;;;;;5052660;28;20029;-78
2022/03/14 11:44:45;;;;;;;14.10;4.53;;;;;;;;;;5052336;28;20175;-78
2022/03/14 11:47:12;;;;;;;10.85;3.38;;;;;;;;;;5052478;28;20033;-78
2022/03/14 11:49:38;;;;;;;8.38;4.00;;;;;;;;;;5052587;28;20411;-79
2022/03/14 11:52:25;;;;;;;4.63;2.85;;;;;;;;;;5039257;28;20441;-81
2022/03/14 11:54:58;;;;;;;5.13;2.95;;;;;;;;;;5033592;28;20045;-77
2022/03/14 11:57:38;;;;;;;4.50;2.90;;;;;;;;;;5032906;28;20029;-76
2022/03/14 12:00:32;;;;;;;3.92;2.30;;;;;;;;;;5048724;28;20391;-78
2022/03/14 12:03:06;;;;;;;8.25;3.17;;;;;;;;;;5053439;28;20060;-77
2022/03/14 12:05:32;;;;;;;6.47;3.42;;;;;;;;;;5053055;28;20025;-77
2022/03/14 12:07:58;;;;;;;3.95;2.75;;;;;;;;;;5052801;28;20064;-78
2022/03/14 12:10:29;;;;;;;9.05;5.43;;;;;;;;;;5053391;28;20029;-78
2022/03/14 12:12:55;;;;;;;10.10;5.20;;;;;;;;;;5052272;28;20128;-78
2022/03/14 12:15:42;;;;;;;4.97;3.15;;;;;;;;;;5051981;28;20044;-78
2022/03/14 12:18:23;;;;;;;6.45;5.10;;;;;;;;;;5052224;28;20048;-76
2022/03/14 12:20:53;;;;;;;5.40;3.50;;;;;;;;;;5053102;28;20124;-78
2022/03/14 12:23:21;;;;;;;5.50;3.90;;;;;;;;;;5052698;28;20193;-79
2022/03/14 12:25:49;;;;;;;9.95;4.80;;;;;;;;;;5052065;28;20483;-79
2022/03/14 12:28:38;;;;;;;8.18;3.60;;;;;;;;;;5050070;28;20072;-78
2022/03/14 12:31:04;;;;;;;4.43;2.55;;;;;;;;;;5047110;28;20045;-79
2022/03/14 12:33:34;;;;;;;4.85;2.90;;;;;;;;;;5053123;28;20052;-78
2022/03/14 12:36:19;;;;;;;4.47;2.65;;;;;;;;;;5052644;28;20033;-80
2022/03/14 12:39:04;;;;;;;4.57;2.63;;;;;;;;;;5037551;28;20055;-77
2022/03/14 12:41:30;;;;;;;3.90;2.75;;;;;;;;;;5052715;28;20029;-77
2022/03/14 12:44:01;;;;;;;5.22;3.40;;;;;;;;;;5051602;28;20041;-78
2022/03/14 12:46:29;;;;;;;7.40;4.20;;;;;;;;;;5051112;28;20045;-78
2022/03/14 12:48:56;;;;;;;8.88;5.85;;;;;;;;;;5053450;28;20031;-77
2022/03/14 12:51:29;;;;;;;7.40;4.75;;;;;;;;;;5053473;28;20130;-76
2022/03/14 12:53:59;;;;;;;4.47;2.85;;;;;;;;;;5052231;28;20065;-77
2022/03/14 12:56:29;;;;;;;4.72;2.90;;;;;;;;;;5052744;28;20024;-76
2022/03/14 12:58:59;;;;;;;4.53;3.22;;;;;;;;;;5051952;28;20033;-77
2022/03/14 13:01:27;;;;;;;5.50;3.30;;;;;;;;;;5054805;28;20100;-78
2022/03/14 13:03:53;;;;;;;11.00;3.30;;;;;;;;;;5052657;28;20083;-77
2022/03/14 13:06:28;;;;;;;6.30;2.60;;;;;;;;;;5053230;28;20121;-79
2022/03/14 13:08:54;;;;;;;10.27;5.53;;;;;;;;;;5050215;28;20396;-79
2022/03/14 13:11:20;;;;;;;10.98;4.45;;;;;;;;;;5053920;28;20040;-78
2022/03/14 13:13:46;;;;;;;8.02;3.95;;;;;;;;;;5053381;28;20017;-79
2022/03/14 13:16:14;;;;;;;4.82;2.60;;;;;;;;;;5053469;28;20028;-79
2022/03/14 13:18:45;;;;;;;3.95;2.33;;;;;;;;;;5053200;28;20033;-77
2022/03/14 13:21:16;;;;;;;7.80;3.50;;;;;;;;;;5050219;28;20029;-79
2022/03/14 13:23:42;;;;;;;5.28;2.42;;;;;;;;;;5051758;28;20035;-77
2022/03/14 13:26:09;;;;;;;8.60;3.00;;;;;;;;;;5051934;28;20076;-77
2022/03/14 13:28:39;;;;;;;4.68;2.92;;;;;;;;;;5050510;28;20033;-79
2022/03/14 13:31:10;;;;;;;7.80;4.68;;;;;;;;;;5051562;28;20036;-77
2022/03/14 13:33:40;;;;;;;7.07;2.55;;;;;;;;;;5052664;28;20035;-77
2022/03/14 13:36:09;;;;;;;4.95;3.58;;;;;;;;;;5048560;28;20037;-78
2022/03/14 13:38:35;;;;;;;5.22;3.30;;;;;;;;;;5051712;28;20021;-77
2022/03/14 13:41:02;;;;;;;4.10;2.85;;;;;;;;;;5052568;28;20025;-79
2022/03/14 13:43:28;;;;;;;6.78;3.00;;;;;;;;;;5051287;28;20037;-78
2022/03/14 13:46:13;;;;;;;4.03;2.53;;;;;;;;;;5051637;28;20045;-79
2022/03/14 13:48:49;;;;;;;6.47;2.92;;;;;;;;;;5053085;28;20071;-78
2022/03/14 13:51:15;;;;;;;6.18;3.28;;;;;;;;;;5052045;28;20033;-76
2022/03/14 13:53:46;;;;;;;5.25;3.25;;;;;;;;;;5052743;28;20457;-76
2022/03/14 13:56:12;;;;;;;6.25;4.32;;;;;;;;;;5052561;28;20447;-78
2022/03/14 13:58:39;;;;;;;4.55;2.80;;;;;;;;;;5051728;28;20111;-80
2022/03/14 14:01:05;;;;;;;4.90;3.08;;;;;;;;;;5052105;28;20037;-78
2022/03/14 14:06:17;;;;;;;5.95;3.22;;;;;;;;;;5051603;28;20132;-77
2022/03/14 14:08:44;;;;;;;10.45;3.85;;;;;;;;;;5052817;28;20468;-76
2022/03/14 14:11:10;;;;;;;5.95;5.00;;;;;;;;;;5052355;28;20468;-79
2022/03/14 14:13:46;;;;;;;11.77;6.90;;;;;;;;;;5050629;28;20044;-81
2022/03/14 14:16:17;;;;;;;8.55;4.88;;;;;;;;;;5052489;28;20179;-79
2022/03/14 14:18:44;;;;;;;5.05;3.15;;;;;;;;;;5051203;28;20029;-79
2022/03/14 14:21:29;;;;;;;6.00;3.40;;;;;;;;;;5052193;28;20135;-79
2022/03/14 14:23:55;;;;;;;5.32;3.55;;;;;;;;;;5052101;28;20036;-77
2022/03/14 14:26:33;;;;;;;9.52;5.22;;;;;;;;;;5049559;28;20041;-79
2022/03/14 14:29:00;;;;;;;7.57;4.05;;;;;;;;;;5049394;28;20036;-79
2022/03/14 14:31:26;;;;;;;6.53;4.45;;;;;;;;;;5052266;28;20381;-79
2022/03/14 14:33:53;;;;;;;8.65;3.10;;;;;;;;;;5051956;28;20353;-79